sensor_id;sensor_type;location;lat;lon;timestamp;pressure;altitude;pressure_sealevel;temperature;humidity
8101;BME280;4093;53.470;9.832;2023-05-23T00:01:07;101191.50;;;21.92;84.46
8101;BME280;4093;53.470;9.832;2023-05-23T00:03:35;101179.66;;;21.69;85.03
8101;BME280;4093;53.470;9.832;2023-05-23T00:06:05;101169.28;;;21.02;87.59
8101;BME280;4093;53.470;9.832;2023-05-23T00:08:34;101178.19;;;21.00;89.22
8101;BME280;4093;53.470;9.832;2023-05-23T00:11:02;101164.72;;;20.90;89.24
8101;BME280;4093;53.470;9.832;2023-05-23T00:13:30;101166.34;;;20.07;94.07
8101;BME280;4093;53.470;9.832;2023-05-23T00:16:00;101165.56;;;19.88;95.74
8101;BME280;4093;53.470;9.832;2023-05-23T00:18:28;101183.38;;;20.51;92.89
8101;BME280;4093;53.470;9.832;2023-05-23T00:20:56;101177.28;;;20.68;91.29
8101;BME280;4093;53.470;9.832;2023-05-23T00:23:24;101175.88;;;20.78;91.56
8101;BME280;4093;53.470;9.832;2023-05-23T00:25:56;101175.81;;;21.27;89.70
8101;BME280;4093;53.470;9.832;2023-05-23T00:28:25;101162.00;;;21.23;89.00
8101;BME280;4093;53.470;9.832;2023-05-23T00:30:53;101157.75;;;21.21;89.60
8101;BME280;4093;53.470;9.832;2023-05-23T00:33:21;101156.66;;;21.25;89.33
8101;BME280;4093;53.470;9.832;2023-05-23T00:35:49;101147.22;;;21.21;88.65
8101;BME280;4093;53.470;9.832;2023-05-23T00:38:17;101148.94;;;21.54;86.59
8101;BME280;4093;53.470;9.832;2023-05-23T00:40:45;101142.50;;;21.59;86.14
8101;BME280;4093;53.470;9.832;2023-05-23T00:43:14;101140.31;;;21.36;87.42
8101;BME280;4093;53.470;9.832;2023-05-23T00:45:42;101142.75;;;21.55;86.75
8101;BME280;4093;53.470;9.832;2023-05-23T00:48:10;101139.78;;;21.45;87.03
8101;BME280;4093;53.470;9.832;2023-05-23T00:50:38;101137.06;;;21.46;86.57
8101;BME280;4093;53.470;9.832;2023-05-23T00:53:07;101133.41;;;21.49;86.41
8101;BME280;4093;53.470;9.832;2023-05-23T00:55:36;101135.78;;;21.54;86.15
8101;BME280;4093;53.470;9.832;2023-05-23T00:58:05;101135.88;;;21.36;87.22
8101;BME280;4093;53.470;9.832;2023-05-23T01:00:34;101128.56;;;21.25;87.75
8101;BME280;4093;53.470;9.832;2023-05-23T01:03:04;101118.13;;;20.92;88.75
8101;BME280;4093;53.470;9.832;2023-05-23T01:05:32;101136.88;;;21.18;87.19
8101;BME280;4093;53.470;9.832;2023-05-23T01:07:59;101133.84;;;20.94;88.12
8101;BME280;4093;53.470;9.832;2023-05-23T01:10:29;101126.59;;;20.82;88.19
8101;BME280;4093;53.470;9.832;2023-05-23T01:13:09;101128.91;;;20.54;88.29
8101;BME280;4093;53.470;9.832;2023-05-23T01:15:44;101128.06;;;20.54;89.40
8101;BME280;4093;53.470;9.832;2023-05-23T01:18:19;101119.38;;;20.19;89.57
8101;BME280;4093;53.470;9.832;2023-05-23T01:20:51;101112.34;;;20.02;89.37
8101;BME280;4093;53.470;9.832;2023-05-23T01:23:35;101138.25;;;20.09;88.87
8101;BME280;4093;53.470;9.832;2023-05-23T01:26:17;101139.78;;;20.31;88.08
8101;BME280;4093;53.470;9.832;2023-05-23T01:28:55;101146.28;;;20.06;89.32
8101;BME280;4093;53.470;9.832;2023-05-23T01:31:33;101151.06;;;20.16;89.70
8101;BME280;4093;53.470;9.832;2023-05-23T01:34:03;101145.25;;;19.92;89.26
8101;BME280;4093;53.470;9.832;2023-05-23T01:36:32;101146.63;;;19.64;90.74
8101;BME280;4093;53.470;9.832;2023-05-23T01:39:01;101143.13;;;19.63;89.65
8101;BME280;4093;53.470;9.832;2023-05-23T01:41:29;101150.56;;;19.73;88.98
8101;BME280;4093;53.470;9.832;2023-05-23T01:43:58;101157.34;;;19.77;89.86
8101;BME280;4093;53.470;9.832;2023-05-23T01:46:27;101145.09;;;19.58;89.63
8101;BME280;4093;53.470;9.832;2023-05-23T01:48:56;101147.72;;;19.58;89.50
8101;BME280;4093;53.470;9.832;2023-05-23T01:51:24;101148.28;;;20.01;87.99
8101;BME280;4093;53.470;9.832;2023-05-23T01:53:53;101148.50;;;19.79;88.54
8101;BME280;4093;53.470;9.832;2023-05-23T01:56:21;101152.28;;;20.08;87.56
8101;BME280;4093;53.470;9.832;2023-05-23T01:58:49;101146.63;;;19.99;87.07
8101;BME280;4093;53.470;9.832;2023-05-23T02:01:20;101140.63;;;19.60;88.23
8101;BME280;4093;53.470;9.832;2023-05-23T02:03:48;101142.03;;;19.50;88.86
8101;BME280;4093;53.470;9.832;2023-05-23T02:06:16;101141.00;;;19.16;90.41
8101;BME280;4093;53.470;9.832;2023-05-23T02:08:43;101144.31;;;19.20;89.80
8101;BME280;4093;53.470;9.832;2023-05-23T02:11:11;101147.06;;;19.36;88.83
8101;BME280;4093;53.470;9.832;2023-05-23T02:13:39;101152.72;;;19.46;89.68
8101;BME280;4093;53.470;9.832;2023-05-23T02:16:07;101160.63;;;19.63;88.13
8101;BME280;4093;53.470;9.832;2023-05-23T02:18:36;101153.81;;;19.23;88.39
8101;BME280;4093;53.470;9.832;2023-05-23T02:21:05;101160.47;;;19.30;88.75
8101;BME280;4093;53.470;9.832;2023-05-23T02:23:33;101154.75;;;19.22;89.05
8101;BME280;4093;53.470;9.832;2023-05-23T02:26:00;101159.50;;;19.13;90.14
8101;BME280;4093;53.470;9.832;2023-05-23T02:28:28;101159.91;;;19.23;88.61
8101;BME280;4093;53.470;9.832;2023-05-23T02:30:56;101164.25;;;19.60;87.30
8101;BME280;4093;53.470;9.832;2023-05-23T02:33:24;101148.00;;;19.16;88.54
8101;BME280;4093;53.470;9.832;2023-05-23T02:35:53;101160.19;;;19.17;88.67
8101;BME280;4093;53.470;9.832;2023-05-23T02:38:21;101144.03;;;19.07;88.69
8101;BME280;4093;53.470;9.832;2023-05-23T02:40:49;101154.63;;;19.06;88.65
8101;BME280;4093;53.470;9.832;2023-05-23T02:43:17;101160.91;;;19.21;88.26
8101;BME280;4093;53.470;9.832;2023-05-23T02:45:45;101161.03;;;19.36;87.27
8101;BME280;4093;53.470;9.832;2023-05-23T02:48:13;101163.94;;;19.30;88.74
8101;BME280;4093;53.470;9.832;2023-05-23T02:50:44;101161.97;;;19.35;87.24
8101;BME280;4093;53.470;9.832;2023-05-23T02:53:18;101158.91;;;19.26;88.24
8101;BME280;4093;53.470;9.832;2023-05-23T02:55:47;101157.63;;;19.53;86.67
8101;BME280;4093;53.470;9.832;2023-05-23T02:58:15;101157.16;;;19.62;85.86
8101;BME280;4093;53.470;9.832;2023-05-23T03:00:43;101135.84;;;18.96;88.58
8101;BME280;4093;53.470;9.832;2023-05-23T03:03:11;101150.97;;;19.08;88.58
8101;BME280;4093;53.470;9.832;2023-05-23T03:05:39;101150.00;;;19.11;88.28
8101;BME280;4093;53.470;9.832;2023-05-23T03:08:07;101140.16;;;18.78;89.47
8101;BME280;4093;53.470;9.832;2023-05-23T03:10:36;101142.22;;;18.70;89.34
8101;BME280;4093;53.470;9.832;2023-05-23T03:13:04;101147.03;;;18.81;90.04
8101;BME280;4093;53.470;9.832;2023-05-23T03:15:31;101147.03;;;19.18;88.15
8101;BME280;4093;53.470;9.832;2023-05-23T03:17:59;101153.81;;;19.23;88.02
8101;BME280;4093;53.470;9.832;2023-05-23T03:20:27;101150.53;;;18.80;89.49
8101;BME280;4093;53.470;9.832;2023-05-23T03:22:55;101156.06;;;19.11;87.97
8101;BME280;4093;53.470;9.832;2023-05-23T03:25:22;101152.75;;;18.89;88.04
8101;BME280;4093;53.470;9.832;2023-05-23T03:27:52;101158.50;;;18.97;88.69
8101;BME280;4093;53.470;9.832;2023-05-23T03:30:20;101161.19;;;18.95;88.15
8101;BME280;4093;53.470;9.832;2023-05-23T03:32:48;101167.50;;;19.10;86.94
8101;BME280;4093;53.470;9.832;2023-05-23T03:35:16;101152.13;;;18.84;88.09
8101;BME280;4093;53.470;9.832;2023-05-23T03:37:43;101156.22;;;18.89;88.20
8101;BME280;4093;53.470;9.832;2023-05-23T03:40:11;101159.56;;;19.12;86.54
8101;BME280;4093;53.470;9.832;2023-05-23T03:42:39;101159.06;;;19.23;86.77
8101;BME280;4093;53.470;9.832;2023-05-23T03:45:08;101152.75;;;18.89;87.76
8101;BME280;4093;53.470;9.832;2023-05-23T03:47:36;101142.50;;;18.84;87.48
8101;BME280;4093;53.470;9.832;2023-05-23T03:50:04;101139.16;;;18.81;88.23
8101;BME280;4093;53.470;9.832;2023-05-23T03:52:32;101153.31;;;18.95;87.42
8101;BME280;4093;53.470;9.832;2023-05-23T03:55:00;101149.56;;;18.43;89.64
8101;BME280;4093;53.470;9.832;2023-05-23T03:57:28;101155.84;;;18.18;91.11
8101;BME280;4093;53.470;9.832;2023-05-23T03:59:56;101151.38;;;18.41;90.03
8101;BME280;4093;53.470;9.832;2023-05-23T04:02:25;101150.91;;;18.70;88.98
8101;BME280;4093;53.470;9.832;2023-05-23T04:04:53;101157.00;;;18.52;89.10
8101;BME280;4093;53.470;9.832;2023-05-23T04:07:22;101158.44;;;18.39;88.78
8101;BME280;4093;53.470;9.832;2023-05-23T04:09:51;101160.53;;;18.51;89.02
8101;BME280;4093;53.470;9.832;2023-05-23T04:12:19;101158.13;;;18.06;90.60
8101;BME280;4093;53.470;9.832;2023-05-23T04:14:47;101155.72;;;18.21;90.51
8101;BME280;4093;53.470;9.832;2023-05-23T04:17:15;101167.19;;;18.17;89.89
8101;BME280;4093;53.470;9.832;2023-05-23T04:19:45;101169.31;;;18.50;88.93
8101;BME280;4093;53.470;9.832;2023-05-23T04:22:12;101165.13;;;18.25;89.71
8101;BME280;4093;53.470;9.832;2023-05-23T04:24:40;101164.06;;;18.30;89.26
8101;BME280;4093;53.470;9.832;2023-05-23T04:27:08;101161.03;;;17.77;91.67
8101;BME280;4093;53.470;9.832;2023-05-23T04:29:36;101164.53;;;18.19;90.70
8101;BME280;4093;53.470;9.832;2023-05-23T04:32:04;101169.22;;;18.52;88.53
8101;BME280;4093;53.470;9.832;2023-05-23T04:34:32;101159.09;;;18.44;89.30
8101;BME280;4093;53.470;9.832;2023-05-23T04:37:01;101154.38;;;18.52;88.92
8101;BME280;4093;53.470;9.832;2023-05-23T04:39:29;101171.78;;;18.53;88.64
8101;BME280;4093;53.470;9.832;2023-05-23T04:41:57;101170.47;;;18.84;87.12
8101;BME280;4093;53.470;9.832;2023-05-23T04:44:25;101167.56;;;18.69;88.15
8101;BME280;4093;53.470;9.832;2023-05-23T04:46:55;101173.41;;;18.76;88.01
8101;BME280;4093;53.470;9.832;2023-05-23T04:49:23;101163.91;;;18.73;88.21
8101;BME280;4093;53.470;9.832;2023-05-23T04:51:51;101171.53;;;18.99;86.04
8101;BME280;4093;53.470;9.832;2023-05-23T04:54:20;101160.63;;;18.68;88.15
8101;BME280;4093;53.470;9.832;2023-05-23T04:56:48;101172.31;;;18.82;87.65
8101;BME280;4093;53.470;9.832;2023-05-23T04:59:15;101156.88;;;18.55;88.40
8101;BME280;4093;53.470;9.832;2023-05-23T05:01:43;101175.59;;;19.06;87.27
8101;BME280;4093;53.470;9.832;2023-05-23T05:04:11;101174.66;;;19.07;87.09
8101;BME280;4093;53.470;9.832;2023-05-23T05:06:39;101164.72;;;18.76;87.19
8101;BME280;4093;53.470;9.832;2023-05-23T05:09:07;101161.09;;;18.58;89.62
8101;BME280;4093;53.470;9.832;2023-05-23T05:11:36;101171.94;;;18.50;88.90
8101;BME280;4093;53.470;9.832;2023-05-23T05:14:04;101177.97;;;18.52;90.15
8101;BME280;4093;53.470;9.832;2023-05-23T05:16:31;101181.09;;;18.81;89.57
8101;BME280;4093;53.470;9.832;2023-05-23T05:18:59;101178.59;;;18.78;89.51
8101;BME280;4093;53.470;9.832;2023-05-23T05:21:27;101188.72;;;18.85;88.26
8101;BME280;4093;53.470;9.832;2023-05-23T05:23:55;101179.44;;;18.78;89.18
8101;BME280;4093;53.470;9.832;2023-05-23T05:26:23;101179.38;;;18.99;87.47
8101;BME280;4093;53.470;9.832;2023-05-23T05:28:52;101175.91;;;18.98;87.58
8101;BME280;4093;53.470;9.832;2023-05-23T05:31:19;101178.13;;;19.07;86.79
8101;BME280;4093;53.470;9.832;2023-05-23T05:33:47;101182.00;;;19.17;87.04
8101;BME280;4093;53.470;9.832;2023-05-23T05:36:15;101170.41;;;19.23;87.56
8101;BME280;4093;53.470;9.832;2023-05-23T05:38:43;101167.84;;;18.84;87.92
8101;BME280;4093;53.470;9.832;2023-05-23T05:41:11;101182.38;;;18.70;89.68
8101;BME280;4093;53.470;9.832;2023-05-23T05:43:38;101181.72;;;19.05;87.50
8101;BME280;4093;53.470;9.832;2023-05-23T05:46:07;101175.91;;;18.98;89.13
8101;BME280;4093;53.470;9.832;2023-05-23T05:48:35;101183.88;;;19.15;88.04
8101;BME280;4093;53.470;9.832;2023-05-23T05:51:03;101192.16;;;19.25;87.69
8101;BME280;4093;53.470;9.832;2023-05-23T05:53:31;101187.81;;;18.86;89.47
8101;BME280;4093;53.470;9.832;2023-05-23T05:55:59;101194.13;;;19.01;88.65
8101;BME280;4093;53.470;9.832;2023-05-23T05:58:26;101200.97;;;19.24;89.03
8101;BME280;4093;53.470;9.832;2023-05-23T06:00:54;101193.44;;;19.35;88.59
8101;BME280;4093;53.470;9.832;2023-05-23T06:03:23;101196.91;;;19.36;87.81
8101;BME280;4093;53.470;9.832;2023-05-23T06:05:51;101195.75;;;19.41;87.85
8101;BME280;4093;53.470;9.832;2023-05-23T06:08:19;101181.88;;;19.21;87.54
8101;BME280;4093;53.470;9.832;2023-05-23T06:10:47;101200.78;;;19.27;88.33
8101;BME280;4093;53.470;9.832;2023-05-23T06:13:14;101202.50;;;19.09;88.79
8101;BME280;4093;53.470;9.832;2023-05-23T06:15:42;101213.84;;;19.10;88.40
8101;BME280;4093;53.470;9.832;2023-05-23T06:18:10;101218.28;;;19.08;88.36
8101;BME280;4093;53.470;9.832;2023-05-23T06:20:39;101216.97;;;18.79;90.48
8101;BME280;4093;53.470;9.832;2023-05-23T06:23:07;101217.13;;;18.55;92.53
8101;BME280;4093;53.470;9.832;2023-05-23T06:25:35;101223.34;;;18.73;91.17
8101;BME280;4093;53.470;9.832;2023-05-23T06:28:03;101226.41;;;18.62;91.61
8101;BME280;4093;53.470;9.832;2023-05-23T06:30:31;101227.06;;;18.47;92.84
8101;BME280;4093;53.470;9.832;2023-05-23T06:33:00;101220.56;;;18.35;91.98
8101;BME280;4093;53.470;9.832;2023-05-23T06:35:28;101233.09;;;18.07;93.95
8101;BME280;4093;53.470;9.832;2023-05-23T06:37:57;101229.72;;;18.25;94.25
8101;BME280;4093;53.470;9.832;2023-05-23T06:40:25;101242.69;;;18.48;92.52
8101;BME280;4093;53.470;9.832;2023-05-23T06:42:53;101254.69;;;18.34;92.89
8101;BME280;4093;53.470;9.832;2023-05-23T06:45:21;101249.19;;;18.60;92.38
8101;BME280;4093;53.470;9.832;2023-05-23T06:47:48;101253.19;;;18.06;94.01
8101;BME280;4093;53.470;9.832;2023-05-23T06:50:17;101246.63;;;17.72;95.53
8101;BME280;4093;53.470;9.832;2023-05-23T06:52:45;101262.63;;;17.88;95.52
8101;BME280;4093;53.470;9.832;2023-05-23T06:55:14;101257.69;;;17.80;95.58
8101;BME280;4093;53.470;9.832;2023-05-23T06:57:45;101260.88;;;17.42;96.37
8101;BME280;4093;53.470;9.832;2023-05-23T07:00:13;101278.75;;;17.77;96.85
8101;BME280;4093;53.470;9.832;2023-05-23T07:02:41;101284.81;;;17.54;95.97
8101;BME280;4093;53.470;9.832;2023-05-23T07:05:11;101280.00;;;17.44;95.39
8101;BME280;4093;53.470;9.832;2023-05-23T07:07:38;101283.66;;;17.40;94.40
8101;BME280;4093;53.470;9.832;2023-05-23T07:10:07;101290.56;;;17.41;94.16
8101;BME280;4093;53.470;9.832;2023-05-23T07:12:36;101299.88;;;17.71;92.42
8101;BME280;4093;53.470;9.832;2023-05-23T07:15:05;101293.75;;;17.49;93.46
8101;BME280;4093;53.470;9.832;2023-05-23T07:17:33;101290.41;;;16.97;94.15
8101;BME280;4093;53.470;9.832;2023-05-23T07:20:01;101241.50;;;16.50;94.91
8101;BME280;4093;53.470;9.832;2023-05-23T07:22:30;101302.13;;;16.85;94.49
8101;BME280;4093;53.470;9.832;2023-05-23T07:24:58;101307.25;;;17.13;93.97
8101;BME280;4093;53.470;9.832;2023-05-23T07:27:26;101308.53;;;17.01;94.15
8101;BME280;4093;53.470;9.832;2023-05-23T07:29:55;101314.94;;;16.93;94.43
8101;BME280;4093;53.470;9.832;2023-05-23T07:32:23;101323.94;;;16.84;96.21
8101;BME280;4093;53.470;9.832;2023-05-23T07:34:51;101322.25;;;17.08;95.17
8101;BME280;4093;53.470;9.832;2023-05-23T07:37:19;101319.97;;;16.99;95.93
8101;BME280;4093;53.470;9.832;2023-05-23T07:39:46;101316.97;;;16.84;96.37
8101;BME280;4093;53.470;9.832;2023-05-23T07:42:14;101336.63;;;16.95;96.57
8101;BME280;4093;53.470;9.832;2023-05-23T07:44:42;101339.66;;;16.82;97.08
8101;BME280;4093;53.470;9.832;2023-05-23T07:47:11;101328.41;;;17.30;95.21
8101;BME280;4093;53.470;9.832;2023-05-23T07:49:39;101341.59;;;17.51;94.50
8101;BME280;4093;53.470;9.832;2023-05-23T07:52:06;101352.72;;;17.81;93.32
8101;BME280;4093;53.470;9.832;2023-05-23T07:54:34;101347.16;;;17.90;92.37
8101;BME280;4093;53.470;9.832;2023-05-23T07:57:02;101348.97;;;17.88;91.93
8101;BME280;4093;53.470;9.832;2023-05-23T07:59:30;101338.22;;;17.49;93.61
8101;BME280;4093;53.470;9.832;2023-05-23T08:01:57;101347.03;;;17.21;95.43
8101;BME280;4093;53.470;9.832;2023-05-23T08:04:27;101355.97;;;17.39;94.33
8101;BME280;4093;53.470;9.832;2023-05-23T08:06:54;101349.88;;;17.15;94.88
8101;BME280;4093;53.470;9.832;2023-05-23T08:09:25;101350.03;;;17.10;93.97
8101;BME280;4093;53.470;9.832;2023-05-23T08:11:53;101350.59;;;16.67;95.70
8101;BME280;4093;53.470;9.832;2023-05-23T08:14:20;101361.91;;;16.94;95.06
8101;BME280;4093;53.470;9.832;2023-05-23T08:16:49;101369.09;;;16.87;95.08
8101;BME280;4093;53.470;9.832;2023-05-23T08:19:17;101375.25;;;16.86;94.78
8101;BME280;4093;53.470;9.832;2023-05-23T08:21:46;101378.34;;;16.98;93.84
8101;BME280;4093;53.470;9.832;2023-05-23T08:24:14;101381.38;;;17.10;93.60
8101;BME280;4093;53.470;9.832;2023-05-23T08:26:42;101393.56;;;17.60;91.96
8101;BME280;4093;53.470;9.832;2023-05-23T08:29:09;101395.16;;;17.64;91.57
8101;BME280;4093;53.470;9.832;2023-05-23T08:31:37;101381.03;;;17.21;92.69
8101;BME280;4093;53.470;9.832;2023-05-23T08:34:05;101385.84;;;17.07;94.30
8101;BME280;4093;53.470;9.832;2023-05-23T08:36:33;101393.91;;;16.74;96.17
8101;BME280;4093;53.470;9.832;2023-05-23T08:39:03;101399.94;;;16.76;96.95
8101;BME280;4093;53.470;9.832;2023-05-23T08:41:31;101406.53;;;16.60;96.86
8101;BME280;4093;53.470;9.832;2023-05-23T08:44:01;101397.84;;;16.31;98.03
8101;BME280;4093;53.470;9.832;2023-05-23T08:46:28;101407.56;;;16.26;98.09
8101;BME280;4093;53.470;9.832;2023-05-23T08:48:57;101415.59;;;16.20;98.33
8101;BME280;4093;53.470;9.832;2023-05-23T08:51:27;101413.47;;;16.05;98.21
8101;BME280;4093;53.470;9.832;2023-05-23T08:53:55;101426.00;;;16.22;97.35
8101;BME280;4093;53.470;9.832;2023-05-23T08:56:25;101432.25;;;16.16;97.57
8101;BME280;4093;53.470;9.832;2023-05-23T08:58:54;101434.28;;;15.75;97.97
8101;BME280;4093;53.470;9.832;2023-05-23T09:01:22;101447.31;;;15.75;98.51
8101;BME280;4093;53.470;9.832;2023-05-23T09:03:50;101442.19;;;15.72;98.26
8101;BME280;4093;53.470;9.832;2023-05-23T09:06:20;101433.06;;;15.54;98.01
8101;BME280;4093;53.470;9.832;2023-05-23T09:08:48;101448.88;;;15.48;98.79
8101;BME280;4093;53.470;9.832;2023-05-23T09:11:16;101455.91;;;15.46;97.28
8101;BME280;4093;53.470;9.832;2023-05-23T09:13:45;101459.50;;;15.42;98.30
8101;BME280;4093;53.470;9.832;2023-05-23T09:16:15;101469.78;;;15.46;97.96
8101;BME280;4093;53.470;9.832;2023-05-23T09:18:44;101464.16;;;14.95;99.73
8101;BME280;4093;53.470;9.832;2023-05-23T09:21:12;101477.53;;;15.15;98.49
8101;BME280;4093;53.470;9.832;2023-05-23T09:23:40;101467.63;;;15.62;96.58
8101;BME280;4093;53.470;9.832;2023-05-23T09:26:10;101480.97;;;15.17;97.49
8101;BME280;4093;53.470;9.832;2023-05-23T09:28:41;101487.34;;;15.04;96.57
8101;BME280;4093;53.470;9.832;2023-05-23T09:31:10;101493.78;;;15.25;97.43
8101;BME280;4093;53.470;9.832;2023-05-23T09:33:42;101482.91;;;15.43;95.68
8101;BME280;4093;53.470;9.832;2023-05-23T09:36:12;101508.59;;;15.23;96.60
8101;BME280;4093;53.470;9.832;2023-05-23T09:38:42;101489.78;;;15.12;96.20
8101;BME280;4093;53.470;9.832;2023-05-23T09:41:10;101498.97;;;15.26;95.46
8101;BME280;4093;53.470;9.832;2023-05-23T09:43:38;101505.28;;;15.50;94.73
8101;BME280;4093;53.470;9.832;2023-05-23T09:46:07;101512.09;;;15.58;94.03
8101;BME280;4093;53.470;9.832;2023-05-23T09:48:36;101501.91;;;15.48;92.89
8101;BME280;4093;53.470;9.832;2023-05-23T09:51:05;101491.38;;;15.17;95.18
8101;BME280;4093;53.470;9.832;2023-05-23T09:53:33;101511.34;;;15.53;93.38
8101;BME280;4093;53.470;9.832;2023-05-23T09:56:02;101513.56;;;14.98;94.51
8101;BME280;4093;53.470;9.832;2023-05-23T09:58:32;101509.72;;;15.13;93.86
8101;BME280;4093;53.470;9.832;2023-05-23T10:01:01;101516.03;;;15.38;92.92
8101;BME280;4093;53.470;9.832;2023-05-23T10:03:32;101515.72;;;15.50;91.46
8101;BME280;4093;53.470;9.832;2023-05-23T10:06:05;101532.78;;;15.64;90.96
8101;BME280;4093;53.470;9.832;2023-05-23T10:08:36;101519.31;;;15.46;91.23
8101;BME280;4093;53.470;9.832;2023-05-23T10:14:16;101531.97;;;15.26;91.72
8101;BME280;4093;53.470;9.832;2023-05-23T10:16:53;101525.81;;;15.30;91.15
8101;BME280;4093;53.470;9.832;2023-05-23T10:19:23;101523.91;;;15.37;92.10
8101;BME280;4093;53.470;9.832;2023-05-23T10:21:57;101538.38;;;15.13;92.18
8101;BME280;4093;53.470;9.832;2023-05-23T10:24:28;101542.00;;;15.41;90.37
8101;BME280;4093;53.470;9.832;2023-05-23T10:26:57;101537.28;;;15.21;90.82
8101;BME280;4093;53.470;9.832;2023-05-23T10:29:25;101546.44;;;15.39;90.26
8101;BME280;4093;53.470;9.832;2023-05-23T10:31:54;101553.00;;;15.88;87.45
8101;BME280;4093;53.470;9.832;2023-05-23T10:34:28;101549.69;;;15.47;88.70
8101;BME280;4093;53.470;9.832;2023-05-23T10:37:02;101546.75;;;15.25;89.67
8101;BME280;4093;53.470;9.832;2023-05-23T10:39:40;101553.03;;;14.78;90.04
8101;BME280;4093;53.470;9.832;2023-05-23T10:42:13;101571.06;;;15.62;88.71
8101;BME280;4093;53.470;9.832;2023-05-23T10:44:42;101567.16;;;15.44;88.39
8101;BME280;4093;53.470;9.832;2023-05-23T10:47:10;101565.88;;;15.24;87.45
8101;BME280;4093;53.470;9.832;2023-05-23T10:49:40;101573.53;;;15.66;86.44
8101;BME280;4093;53.470;9.832;2023-05-23T10:52:10;101577.34;;;15.55;86.46
8101;BME280;4093;53.470;9.832;2023-05-23T10:54:42;101578.13;;;15.58;87.39
8101;BME280;4093;53.470;9.832;2023-05-23T10:57:14;101585.66;;;15.33;87.73
8101;BME280;4093;53.470;9.832;2023-05-23T10:59:43;101577.66;;;15.03;86.42
8101;BME280;4093;53.470;9.832;2023-05-23T11:02:14;101580.38;;;14.99;86.55
8101;BME280;4093;53.470;9.832;2023-05-23T11:04:42;101569.59;;;15.50;84.49
8101;BME280;4093;53.470;9.832;2023-05-23T11:07:31;101567.63;;;15.60;83.70
8101;BME280;4093;53.470;9.832;2023-05-23T11:10:03;101561.41;;;15.67;82.57
8101;BME280;4093;53.470;9.832;2023-05-23T11:12:38;101554.13;;;15.44;82.60
8101;BME280;4093;53.470;9.832;2023-05-23T11:15:19;101586.72;;;15.62;81.63
8101;BME280;4093;53.470;9.832;2023-05-23T11:17:51;101596.41;;;15.92;81.90
8101;BME280;4093;53.470;9.832;2023-05-23T11:20:23;101597.81;;;16.04;81.21
8101;BME280;4093;53.470;9.832;2023-05-23T11:23:00;101588.41;;;15.63;81.67
8101;BME280;4093;53.470;9.832;2023-05-23T11:25:41;101607.75;;;16.23;78.77
8101;BME280;4093;53.470;9.832;2023-05-23T11:28:10;101596.44;;;16.55;77.88
8101;BME280;4093;53.470;9.832;2023-05-23T11:30:38;101583.59;;;16.16;77.37
8101;BME280;4093;53.470;9.832;2023-05-23T11:33:08;101598.88;;;15.97;76.53
8101;BME280;4093;53.470;9.832;2023-05-23T11:35:39;101588.69;;;15.88;76.44
8101;BME280;4093;53.470;9.832;2023-05-23T11:38:09;101589.97;;;16.04;76.23
8101;BME280;4093;53.470;9.832;2023-05-23T11:40:38;101591.66;;;15.74;77.19
8101;BME280;4093;53.470;9.832;2023-05-23T11:43:09;101591.97;;;15.96;76.12
8101;BME280;4093;53.470;9.832;2023-05-23T11:45:37;101605.84;;;16.29;77.04
8101;BME280;4093;53.470;9.832;2023-05-23T11:48:06;101608.38;;;16.32;76.78
8101;BME280;4093;53.470;9.832;2023-05-23T11:50:45;101602.28;;;16.33;76.01
8101;BME280;4093;53.470;9.832;2023-05-23T11:53:20;101594.28;;;16.38;76.31
8101;BME280;4093;53.470;9.832;2023-05-23T11:55:51;101585.72;;;16.02;75.21
8101;BME280;4093;53.470;9.832;2023-05-23T11:58:20;101600.28;;;16.41;74.34
8101;BME280;4093;53.470;9.832;2023-05-23T12:00:48;101604.13;;;16.59;74.18
8101;BME280;4093;53.470;9.832;2023-05-23T12:03:20;101602.72;;;16.79;72.13
8101;BME280;4093;53.470;9.832;2023-05-23T12:05:48;101578.59;;;16.71;71.51
8101;BME280;4093;53.470;9.832;2023-05-23T12:08:16;101600.03;;;16.82;72.22
8101;BME280;4093;53.470;9.832;2023-05-23T12:10:56;101594.81;;;16.82;70.59
8101;BME280;4093;53.470;9.832;2023-05-23T12:13:24;101595.88;;;17.04;70.23
8101;BME280;4093;53.470;9.832;2023-05-23T12:15:53;101599.28;;;16.78;70.73
8101;BME280;4093;53.470;9.832;2023-05-23T12:18:22;101600.72;;;17.17;69.31
8101;BME280;4093;53.470;9.832;2023-05-23T12:20:50;101604.84;;;17.78;68.17
8101;BME280;4093;53.470;9.832;2023-05-23T12:23:20;101608.97;;;18.11;66.45
8101;BME280;4093;53.470;9.832;2023-05-23T12:25:49;101592.63;;;17.52;67.78
8101;BME280;4093;53.470;9.832;2023-05-23T12:28:20;101606.03;;;17.68;68.87
8101;BME280;4093;53.470;9.832;2023-05-23T12:30:48;101606.50;;;17.26;67.37
8101;BME280;4093;53.470;9.832;2023-05-23T12:33:17;101613.00;;;17.43;66.91
8101;BME280;4093;53.470;9.832;2023-05-23T12:35:45;101598.94;;;17.45;67.19
8101;BME280;4093;53.470;9.832;2023-05-23T12:38:14;101595.75;;;17.09;66.98
8101;BME280;4093;53.470;9.832;2023-05-23T12:40:42;101619.09;;;17.42;66.56
8101;BME280;4093;53.470;9.832;2023-05-23T12:43:10;101623.63;;;17.37;66.50
8101;BME280;4093;53.470;9.832;2023-05-23T12:45:39;101618.22;;;17.43;67.07
8101;BME280;4093;53.470;9.832;2023-05-23T12:48:09;101624.78;;;17.28;67.19
8101;BME280;4093;53.470;9.832;2023-05-23T12:50:37;101624.41;;;17.10;68.92
8101;BME280;4093;53.470;9.832;2023-05-23T12:53:05;101622.69;;;16.81;69.23
8101;BME280;4093;53.470;9.832;2023-05-23T12:55:33;101630.56;;;17.09;66.93
8101;BME280;4093;53.470;9.832;2023-05-23T12:58:00;101632.34;;;17.07;66.64
8101;BME280;4093;53.470;9.832;2023-05-23T13:00:28;101634.09;;;17.08;66.30
8101;BME280;4093;53.470;9.832;2023-05-23T13:02:57;101631.56;;;17.05;66.87
8101;BME280;4093;53.470;9.832;2023-05-23T13:05:25;101630.03;;;18.08;65.32
8101;BME280;4093;53.470;9.832;2023-05-23T13:07:53;101642.69;;;17.12;66.77
8101;BME280;4093;53.470;9.832;2023-05-23T13:10:20;101630.03;;;17.26;67.71
8101;BME280;4093;53.470;9.832;2023-05-23T13:12:48;101649.03;;;17.33;66.38
8101;BME280;4093;53.470;9.832;2023-05-23T13:15:17;101638.66;;;17.58;64.15
8101;BME280;4093;53.470;9.832;2023-05-23T13:17:45;101652.00;;;18.03;64.32
8101;BME280;4093;53.470;9.832;2023-05-23T13:20:17;101651.19;;;17.47;64.78
8101;BME280;4093;53.470;9.832;2023-05-23T13:22:45;101651.28;;;17.44;64.69